Time;durP1;ratioP1;P1;durP2;ratioP2;P2;SDS_P1;SDS_P2;PMS_P1;PMS_P2;Temp;Humidity;BMP_temperature;BMP_pressure;BME280_temperature;BME280_humidity;BME280_pressure;Samples;Min_cycle;Max_cycle;Signal;HPM_P1;HPM_P2
2022/12/05 00:01:52;;;;;;;0.10;0.10;;;3.10;99.90;1.40;96386.00;;;;5069829;28;20619;-73
2022/12/05 00:04:20;;;;;;;0.10;0.10;;;3.00;99.90;1.50;96416.00;;;;5069585;28;20220;-72
2022/12/05 00:06:48;;;;;;;0.10;0.10;;;3.10;99.90;1.50;96405.00;;;;5056148;28;20744;-74
2022/12/05 00:09:16;;;;;;;0.10;0.10;;;3.10;99.90;1.50;96404.00;;;;5069024;28;20219;-74
2022/12/05 00:11:46;;;;;;;0.10;0.10;;;3.10;99.90;1.50;96331.00;;;;5069962;28;20730;-74
2022/12/05 00:14:14;;;;;;;0.10;0.10;;;3.10;99.90;1.50;96383.00;;;;5072908;28;20590;-72
2022/12/05 00:16:44;;;;;;;0.10;0.10;;;3.10;99.90;1.60;96389.00;;;;5076857;28;20634;-72
2022/12/05 00:19:15;;;;;;;0.10;0.10;;;3.20;99.90;1.60;96389.00;;;;5076109;28;20198;-72
2022/12/05 00:21:44;;;;;;;0.10;0.10;;;3.20;99.90;1.60;96413.00;;;;5074222;28;20190;-72
2022/12/05 00:24:15;;;;;;;0.10;0.10;;;3.20;99.90;1.70;96397.00;;;;5073183;28;20205;-72
2022/12/05 00:26:44;;;;;;;0.10;0.10;;;3.20;99.90;1.60;96355.00;;;;5073166;28;20685;-73
2022/12/05 00:29:12;;;;;;;0.10;0.10;;;3.20;99.90;1.60;96381.00;;;;5066022;28;20561;-72
2022/12/05 00:31:41;;;;;;;0.10;0.10;;;3.20;99.90;1.70;96395.00;;;;5073101;28;20197;-72
2022/12/05 00:34:11;;;;;;;0.10;0.10;;;3.20;99.90;1.70;96396.00;;;;5072145;28;20217;-73
2022/12/05 00:36:41;;;;;;;0.10;0.10;;;3.20;99.90;1.70;96402.00;;;;5073538;28;20704;-72
2022/12/05 00:39:13;;;;;;;0.10;0.10;;;3.30;99.90;1.70;96406.00;;;;5072207;28;20186;-72
2022/12/05 00:41:42;;;;;;;0.10;0.10;;;3.30;99.90;1.80;96444.00;;;;5072957;28;20189;-72
2022/12/05 00:44:12;;;;;;;0.10;0.10;;;3.30;99.90;1.80;96442.00;;;;5072522;28;20613;-72
2022/12/05 00:46:41;;;;;;;0.10;0.10;;;3.30;99.90;1.80;96427.00;;;;5073241;28;20201;-72
2022/12/05 00:49:12;;;;;;;0.10;0.10;;;3.30;99.90;1.70;96428.00;;;;5067983;28;20243;-72
2022/12/05 00:51:43;;;;;;;0.10;0.10;;;3.30;99.90;1.60;96418.00;;;;5073141;28;20202;-73
2022/12/05 00:54:14;;;;;;;0.10;0.10;;;3.10;99.90;1.50;96415.00;;;;5071207;28;20618;-72
2022/12/05 00:56:44;;;;;;;0.10;0.10;;;3.20;99.90;1.50;96449.00;;;;5073142;28;20209;-72
2022/12/05 00:59:16;;;;;;;0.10;0.10;;;3.10;99.90;1.50;96429.00;;;;5071929;28;20182;-71
2022/12/05 01:01:47;;;;;;;0.10;0.10;;;3.10;99.90;1.50;96421.00;;;;5072870;28;20194;-75
2022/12/05 01:04:20;;;;;;;0.10;0.10;;;3.00;99.90;1.40;96349.00;;;;5072742;28;20201;-72
2022/12/05 01:06:49;;;;;;;0.10;0.10;;;3.00;99.90;1.50;96443.00;;;;5073064;28;20218;-72
2022/12/05 01:09:20;;;;;;;0.10;0.10;;;3.00;99.90;1.50;96364.00;;;;5072212;28;20182;-72
2022/12/05 01:11:49;;;;;;;0.10;0.10;;;3.10;99.90;1.50;96385.00;;;;5072498;28;20198;-73
2022/12/05 01:14:22;;;;;;;0.10;0.10;;;3.10;99.90;1.60;96440.00;;;;5072085;28;20214;-72
2022/12/05 01:16:53;;;;;;;0.10;0.10;;;3.10;99.90;1.60;96449.00;;;;5072409;28;20615;-73
2022/12/05 01:19:25;;;;;;;0.10;0.10;;;3.20;99.90;1.60;96466.00;;;;5071655;28;20194;-74
2022/12/05 01:21:54;;;;;;;0.10;0.10;;;3.20;99.90;1.70;96458.00;;;;5073318;28;20624;-74
2022/12/05 01:24:24;;;;;;;0.08;0.08;;;3.20;99.90;1.70;96487.00;;;;5058447;28;20611;-73
2022/12/05 01:26:53;;;;;;;0.10;0.10;;;3.20;99.90;1.50;96441.00;;;;5072770;28;20205;-73
2022/12/05 01:29:24;;;;;;;0.10;0.10;;;3.20;99.90;1.50;96440.00;;;;5070346;28;20758;-74
2022/12/05 01:31:52;;;;;;;0.10;0.10;;;3.10;99.90;1.50;96435.00;;;;5072321;28;20201;-73
2022/12/05 01:34:23;;;;;;;0.10;0.10;;;3.10;99.90;1.50;96426.00;;;;5072049;28;20224;-74
2022/12/05 01:36:51;;;;;;;0.10;0.10;;;3.10;99.90;1.30;96398.00;;;;5056339;28;20213;-74
2022/12/05 01:39:22;;;;;;;0.10;0.10;;;3.00;99.90;1.30;96383.00;;;;5071617;28;20208;-74
2022/12/05 01:41:51;;;;;;;0.10;0.10;;;3.00;99.90;1.50;96445.00;;;;5072450;28;20190;-73
2022/12/05 01:44:59;;;;;;;0.10;0.10;;;3.10;99.90;1.60;96403.00;;;;5070740;28;20221;-73
2022/12/05 01:47:31;;;;;;;0.10;0.10;;;3.10;99.90;1.60;96407.00;;;;5071533;28;20264;-74
2022/12/05 01:50:01;;;;;;;0.10;0.10;;;3.20;99.90;1.70;96402.00;;;;5072245;28;20202;-74
2022/12/05 01:52:33;;;;;;;0.08;0.08;;;3.20;99.90;1.70;96442.00;;;;5066499;28;21038;-74
2022/12/05 01:55:10;;;;;;;0.00;0.00;;;3.30;99.90;1.70;96447.00;;;;5071653;28;20568;-73
2022/12/05 01:57:39;;;;;;;0.10;0.10;;;3.20;99.90;1.70;96389.00;;;;5067006;28;20226;-74
2022/12/05 02:00:13;;;;;;;0.10;0.10;;;3.20;99.90;1.70;96438.00;;;;5065357;28;20243;-73
2022/12/05 02:02:46;;;;;;;0.10;0.10;;;3.30;99.90;1.70;96416.00;;;;5071251;28;20243;-73
2022/12/05 02:05:20;;;;;;;0.10;0.10;;;3.30;99.90;1.70;96412.00;;;;5071360;28;20218;-74
2022/12/05 02:07:49;;;;;;;0.10;0.10;;;3.30;99.90;1.70;96420.00;;;;5062923;28;20201;-73
2022/12/05 02:10:18;;;;;;;0.10;0.10;;;3.30;99.90;1.70;96459.00;;;;5071858;28;20680;-73
2022/12/05 02:12:47;;;;;;;0.10;0.10;;;3.30;99.90;1.60;96454.00;;;;5071714;28;20673;-73
2022/12/05 02:15:38;;;;;;;0.10;0.10;;;3.20;99.90;1.70;96453.00;;;;5069885;28;20774;-73
2022/12/05 02:18:34;;;;;;;0.10;0.10;;;3.30;99.90;1.80;96467.00;;;;5070502;28;20793;-74
2022/12/05 02:21:31;;;;;;;0.10;0.10;;;3.30;99.90;1.80;96472.00;;;;5069755;28;20224;-75
2022/12/05 02:24:47;;;;;;;0.10;0.10;;;3.30;99.90;1.80;96468.00;;;;5063218;28;20221;-73
2022/12/05 02:27:48;;;;;;;0.10;0.10;;;3.40;99.90;1.80;96463.00;;;;5066593;28;20742;-78
2022/12/05 02:30:20;;;;;;;0.10;0.10;;;3.40;99.90;1.90;96466.00;;;;5071238;28;20510;-72
2022/12/05 02:33:03;;;;;;;0.10;0.10;;;3.40;99.90;1.80;96468.00;;;;5074129;28;20205;-73
2022/12/05 02:35:45;;;;;;;0.10;0.10;;;3.30;99.90;1.70;96464.00;;;;5077121;28;20221;-72
2022/12/05 02:38:26;;;;;;;0.10;0.10;;;3.20;99.90;1.80;96472.00;;;;5070827;28;20764;-72
2022/12/05 02:41:07;;;;;;;0.10;0.10;;;3.30;99.90;1.70;96484.00;;;;5070971;28;20190;-72
2022/12/05 02:43:42;;;;;;;0.10;0.10;;;3.30;99.90;1.60;96457.00;;;;5070743;28;20198;-75
2022/12/05 02:46:17;;;;;;;0.10;0.10;;;3.20;99.90;1.70;96456.00;;;;5071378;28;20208;-72
2022/12/05 02:48:49;;;;;;;0.10;0.10;;;3.20;99.90;1.80;96478.00;;;;5061454;28;20201;-72
2022/12/05 02:51:24;;;;;;;0.05;0.05;;;3.30;99.90;1.60;96469.00;;;;5071875;28;20197;-72
2022/12/05 02:53:59;;;;;;;0.10;0.10;;;3.20;99.90;1.60;96483.00;;;;5069538;28;20232;-72
2022/12/05 02:56:32;;;;;;;0.00;0.00;;;3.20;99.90;1.60;96474.00;;;;5046529;28;20686;-72
2022/12/05 02:59:01;;;;;;;0.10;0.10;;;3.20;99.90;1.60;96460.00;;;;5058222;28;20220;-74
2022/12/05 03:01:32;;;;;;;0.10;0.10;;;3.20;99.90;1.50;96456.00;;;;5071110;28;20193;-72
2022/12/05 03:04:06;;;;;;;0.10;0.10;;;3.00;99.90;1.50;96383.00;;;;5070198;28;20210;-72
2022/12/05 03:06:41;;;;;;;0.00;0.00;;;3.00;99.90;1.40;96455.00;;;;5070865;28;20604;-73
2022/12/05 03:09:16;;;;;;;0.10;0.10;;;3.00;99.90;1.40;96458.00;;;;5058730;28;20251;-72
2022/12/05 03:11:49;;;;;;;0.10;0.10;;;3.00;99.90;1.40;96480.00;;;;5070850;28;20264;-71
2022/12/05 03:14:23;;;;;;;0.10;0.10;;;3.00;99.90;1.40;96413.00;;;;5070439;28;20236;-71
2022/12/05 03:16:58;;;;;;;0.10;0.10;;;3.00;99.90;1.40;96485.00;;;;5070291;28;20194;-72
2022/12/05 03:19:32;;;;;;;0.10;0.10;;;3.00;99.90;1.40;96493.00;;;;5067228;28;20237;-72
2022/12/05 03:22:08;;;;;;;0.10;0.10;;;3.00;99.90;1.40;96479.00;;;;5071633;28;20855;-71
2022/12/05 03:24:40;;;;;;;0.10;0.10;;;2.90;99.90;1.30;96480.00;;;;5071202;28;20220;-71
2022/12/05 03:27:22;;;;;;;0.10;0.10;;;2.90;99.90;1.30;96474.00;;;;5078071;28;20190;-72
2022/12/05 03:29:56;;;;;;;0.10;0.10;;;2.90;99.90;1.30;96477.00;;;;5080239;28;20201;-71
2022/12/05 03:32:36;;;;;;;0.10;0.10;;;2.80;99.90;1.30;96445.00;;;;5078692;28;20200;-71
2022/12/05 03:35:12;;;;;;;0.10;0.10;;;2.80;99.90;1.20;96458.00;;;;5068097;28;20209;-71
2022/12/05 03:37:47;;;;;;;0.10;0.10;;;2.80;99.90;1.20;96462.00;;;;5077809;28;20255;-70
2022/12/05 03:40:32;;;;;;;0.10;0.10;;;2.70;99.90;1.20;96469.00;;;;5078604;28;20197;-72
2022/12/05 03:43:09;;;;;;;0.10;0.10;;;2.70;99.90;1.30;96474.00;;;;5078933;28;20227;-71
2022/12/05 03:45:47;;;;;;;0.00;0.00;;;2.90;99.90;1.30;96473.00;;;;5078791;28;20240;-71
2022/12/05 03:48:27;;;;;;;0.10;0.10;;;2.80;99.90;1.20;96419.00;;;;5078458;28;20228;-71
2022/12/05 03:50:58;;;;;;;0.10;0.10;;;2.80;99.90;1.20;96477.00;;;;5070192;28;20640;-72
2022/12/05 03:53:34;;;;;;;0.10;0.10;;;2.80;99.90;1.20;96501.00;;;;5071841;28;20213;-72
2022/12/05 03:56:08;;;;;;;0.10;0.10;;;2.80;99.90;1.20;96465.00;;;;5074335;28;20193;-71
2022/12/05 03:58:43;;;;;;;0.10;0.10;;;2.80;99.90;1.20;96504.00;;;;5071934;28;20212;-74
2022/12/05 04:01:16;;;;;;;0.10;0.10;;;2.80;99.90;1.20;96484.00;;;;5073560;28;20186;-73
2022/12/05 04:03:51;;;;;;;0.10;0.10;;;2.70;99.90;1.10;96506.00;;;;5072900;28;20217;-74
2022/12/05 04:06:28;;;;;;;0.10;0.10;;;2.70;99.90;1.10;96485.00;;;;5074439;28;20197;-73
2022/12/05 04:09:01;;;;;;;0.00;0.00;;;2.60;99.90;1.10;96479.00;;;;5069809;28;20185;-73
2022/12/05 04:11:35;;;;;;;0.10;0.10;;;2.70;99.90;1.10;96501.00;;;;5074013;28;20201;-73
2022/12/05 04:14:11;;;;;;;0.10;0.10;;;2.70;99.90;1.10;96490.00;;;;5072113;28;20556;-72
2022/12/05 04:22:27;;;;;;;0.10;0.10;;;2.70;99.90;1.10;96485.00;;;;5073656;28;20186;-70
2022/12/05 04:27:56;;;;;;;0.10;0.10;;;2.70;99.90;1.20;96495.00;;;;5072253;28;20236;-74
2022/12/05 04:30:33;;;;;;;0.10;0.10;;;2.70;99.90;1.20;96491.00;;;;5071864;28;20704;-73
2022/12/05 04:33:08;;;;;;;0.10;0.10;;;2.70;99.90;1.20;96500.00;;;;5073418;28;20186;-73
2022/12/05 04:35:43;;;;;;;0.10;0.10;;;2.70;99.90;1.20;96507.00;;;;5073873;28;20218;-73
2022/12/05 04:38:17;;;;;;;0.10;0.10;;;2.80;99.90;1.20;96511.00;;;;5072780;28;20238;-73
2022/12/05 04:40:54;;;;;;;0.10;0.10;;;2.80;99.90;1.30;96511.00;;;;5073200;28;20714;-70
2022/12/05 04:43:25;;;;;;;0.10;0.10;;;2.80;99.90;1.30;96526.00;;;;5072412;28;20673;-70
2022/12/05 04:45:57;;;;;;;0.10;0.10;;;2.80;99.90;1.40;96540.00;;;;5058234;28;20210;-72
2022/12/05 04:48:28;;;;;;;0.10;0.10;;;2.90;99.90;1.40;96566.00;;;;5063578;28;20266;-72
2022/12/05 04:50:59;;;;;;;0.10;0.10;;;2.90;99.90;1.30;96465.00;;;;5073090;28;20201;-72
2022/12/05 04:53:32;;;;;;;0.10;0.10;;;2.90;99.90;1.40;96463.00;;;;5073295;28;20533;-72
2022/12/05 04:56:04;;;;;;;0.10;0.10;;;3.00;99.90;1.70;96477.00;;;;5073771;28;20194;-73
2022/12/05 04:58:32;;;;;;;0.10;0.10;;;3.20;99.90;1.90;96506.00;;;;5071264;28;20263;-73
2022/12/05 05:01:10;;;;;;;0.10;0.10;;;3.40;99.90;1.80;96512.00;;;;5072801;28;20190;-73
2022/12/05 05:03:43;;;;;;;0.10;0.10;;;3.40;99.90;1.70;96485.00;;;;5072858;28;20665;-71
2022/12/05 05:06:14;;;;;;;0.10;0.10;;;3.30;99.90;1.60;96491.00;;;;5072995;28;20190;-73
2022/12/05 05:08:49;;;;;;;0.05;0.05;;;3.20;99.90;1.60;96494.00;;;;5072123;28;20197;-74
2022/12/05 05:11:21;;;;;;;0.10;0.10;;;3.20;99.90;1.60;96494.00;;;;5071074;28;20193;-73
2022/12/05 05:13:50;;;;;;;0.10;0.10;;;3.30;99.90;1.40;96430.00;;;;5072633;28;20206;-73
2022/12/05 05:16:22;;;;;;;0.10;0.10;;;3.10;99.90;1.40;96505.00;;;;5073021;28;20189;-74
2022/12/05 05:18:51;;;;;;;0.10;0.10;;;3.10;99.90;1.40;96492.00;;;;5071474;28;20271;-71
2022/12/05 05:21:26;;;;;;;0.10;0.10;;;3.00;99.90;1.50;96507.00;;;;5071396;28;20198;-74
2022/12/05 05:23:55;;;;;;;0.10;0.10;;;3.10;99.90;1.50;96520.00;;;;5071869;28;20233;-74
2022/12/05 05:26:25;;;;;;;0.10;0.10;;;3.10;99.90;1.50;96475.00;;;;5072805;28;20263;-73
2022/12/05 05:28:53;;;;;;;0.10;0.10;;;3.10;99.90;1.60;96495.00;;;;5072116;28;20209;-73
2022/12/05 05:31:22;;;;;;;0.03;0.03;;;3.20;99.90;1.60;96499.00;;;;5073062;28;20199;-73
2022/12/05 05:33:50;;;;;;;0.10;0.10;;;3.20;99.90;1.60;96502.00;;;;5072240;28;20214;-73
2022/12/05 05:36:21;;;;;;;0.10;0.10;;;3.20;99.90;1.70;96501.00;;;;5072873;28;20830;-70
2022/12/05 05:38:52;;;;;;;0.10;0.10;;;3.30;99.90;1.50;96491.00;;;;5071756;28;20209;-70
2022/12/05 05:41:24;;;;;;;0.10;0.10;;;3.20;99.90;1.60;96502.00;;;;5072400;28;20235;-71
2022/12/05 05:43:54;;;;;;;0.10;0.10;;;3.20;99.90;1.60;96497.00;;;;5066184;28;20225;-70
2022/12/05 05:46:26;;;;;;;0.10;0.10;;;3.20;99.90;1.50;96526.00;;;;5072584;28;20186;-71
2022/12/05 05:48:55;;;;;;;0.10;0.10;;;3.20;99.90;1.50;96494.00;;;;5066622;28;20658;-71
2022/12/05 05:51:26;;;;;;;0.10;0.10;;;3.20;99.90;1.60;96506.00;;;;5059874;28;20703;-71
2022/12/05 05:53:55;;;;;;;0.10;0.10;;;3.30;99.90;1.60;96521.00;;;;5071921;28;20221;-71
2022/12/05 05:56:24;;;;;;;0.10;0.10;;;3.30;99.90;1.70;96507.00;;;;5069046;28;20197;-71
2022/12/05 05:58:57;;;;;;;0.10;0.10;;;3.30;99.90;1.70;96508.00;;;;5071071;28;20226;-72
2022/12/05 06:01:26;;;;;;;0.05;0.05;;;3.30;99.90;1.60;96510.00;;;;5071546;28;20197;-71
2022/12/05 06:03:54;;;;;;;0.10;0.10;;;3.30;99.90;1.70;96501.00;;;;5072909;28;20222;-72
2022/12/05 06:06:26;;;;;;;0.10;0.10;;;3.30;99.90;1.50;96509.00;;;;5074137;28;20202;-72
2022/12/05 06:08:54;;;;;;;0.10;0.10;;;3.10;99.90;1.60;96521.00;;;;5074851;28;20223;-71
2022/12/05 06:11:25;;;;;;;0.10;0.10;;;3.20;99.90;1.60;96534.00;;;;5074098;28;20254;-72
2022/12/05 06:13:56;;;;;;;0.10;0.10;;;3.20;99.90;1.50;96527.00;;;;5071428;28;20223;-73
2022/12/05 06:16:25;;;;;;;0.08;0.08;;;3.10;99.90;1.40;96530.00;;;;5071277;28;20223;-72
2022/12/05 06:18:53;;;;;;;0.10;0.10;;;3.00;99.90;1.40;96532.00;;;;5063853;28;20656;-71
2022/12/05 06:21:22;;;;;;;0.10;0.10;;;3.00;99.90;1.50;96534.00;;;;5070169;28;20209;-72
2022/12/05 06:23:52;;;;;;;0.10;0.10;;;3.00;99.90;1.50;96529.00;;;;5071430;28;20259;-73
2022/12/05 06:26:22;;;;;;;0.10;0.10;;;3.00;99.90;1.50;96551.00;;;;5070983;28;20695;-72
2022/12/05 06:28:50;;;;;;;0.10;0.10;;;3.10;99.90;1.60;96550.00;;;;5069996;28;20197;-71
2022/12/05 06:31:22;;;;;;;0.10;0.10;;;3.10;99.90;1.70;96475.00;;;;5070817;28;20247;-72
2022/12/05 06:33:51;;;;;;;0.10;0.10;;;3.20;99.90;1.90;96556.00;;;;5071224;28;20233;-73
2022/12/05 06:36:21;;;;;;;0.10;0.10;;;3.40;99.90;1.90;96545.00;;;;5071736;28;20627;-72
2022/12/05 06:38:51;;;;;;;0.10;0.10;;;3.40;99.90;1.80;96547.00;;;;5069310;28;20723;-72
2022/12/05 06:41:23;;;;;;;0.10;0.10;;;3.40;99.90;1.80;96562.00;;;;5067794;28;20198;-73
2022/12/05 06:43:53;;;;;;;0.10;0.10;;;3.50;99.90;1.80;96600.00;;;;5069319;28;20205;-72
2022/12/05 06:46:28;;;;;;;0.10;0.10;;;3.40;99.90;1.80;96579.00;;;;5071013;28;20246;-73
2022/12/05 06:48:59;;;;;;;0.10;0.10;;;3.40;99.90;1.80;96571.00;;;;5069276;28;20597;-73
2022/12/05 06:51:28;;;;;;;0.10;0.10;;;3.40;99.90;1.90;96582.00;;;;5070593;28;20190;-71
2022/12/05 06:54:01;;;;;;;0.10;0.10;;;3.50;99.90;2.10;96588.00;;;;5070821;28;20213;-73
2022/12/05 06:56:30;;;;;;;0.10;0.10;;;3.70;99.90;2.30;96585.00;;;;5070820;28;20198;-73
2022/12/05 06:58:58;;;;;;;0.10;0.10;;;3.80;99.90;2.20;96573.00;;;;5065551;28;20264;-72
2022/12/05 07:01:39;;;;;;;0.10;0.10;;;3.80;99.90;2.20;96579.00;;;;5066906;28;20686;-72
2022/12/05 07:04:14;;;;;;;0.10;0.10;;;3.80;99.90;2.30;96600.00;;;;5061455;28;20221;-72
2022/12/05 07:06:45;;;;;;;0.10;0.10;;;3.90;99.90;2.40;96606.00;;;;5070863;28;20201;-72
2022/12/05 07:09:44;;;;;;;0.10;0.10;;;4.00;99.90;2.50;96597.00;;;;5070562;28;20201;-73
2022/12/05 07:12:11;;;;;;;0.10;0.10;;;4.10;99.90;2.60;96595.00;;;;5069740;28;20202;-72
2022/12/05 07:14:39;;;;;;;0.10;0.10;;;4.10;99.90;2.30;96578.00;;;;5070963;28;20210;-72
2022/12/05 07:17:16;;;;;;;0.10;0.10;;;4.00;99.90;2.20;96572.00;;;;5070294;28;20190;-72
2022/12/05 07:19:44;;;;;;;0.10;0.10;;;3.80;99.90;2.10;96594.00;;;;5069491;28;20253;-72
2022/12/05 07:22:12;;;;;;;0.10;0.10;;;3.80;99.90;2.00;96580.00;;;;5070653;28;20198;-73
2022/12/05 07:24:45;;;;;;;0.10;0.10;;;3.60;99.90;1.90;96577.00;;;;5070341;28;20217;-72
2022/12/05 07:27:15;;;;;;;0.10;0.10;;;3.50;99.90;2.00;96602.00;;;;5070885;28;20205;-72
2022/12/05 07:29:51;;;;;;;0.10;0.10;;;3.50;99.90;1.90;96609.00;;;;5075077;28;20193;-72
2022/12/05 07:32:19;;;;;;;0.10;0.10;;;3.50;99.90;1.90;96592.00;;;;5074921;28;20198;-72
2022/12/05 07:34:47;;;;;;;0.10;0.10;;;3.50;99.90;1.80;96599.00;;;;5075120;28;20222;-72
2022/12/05 07:37:22;;;;;;;0.10;0.10;;;3.40;99.90;1.80;96605.00;;;;5074142;28;20228;-72
2022/12/05 07:39:53;;;;;;;0.10;0.10;;;3.40;99.90;1.80;96614.00;;;;5074578;28;20722;-72
2022/12/05 07:42:21;;;;;;;0.10;0.10;;;3.40;99.90;1.80;96608.00;;;;5073872;28;20197;-73
2022/12/05 07:44:49;;;;;;;0.10;0.10;;;3.40;99.90;1.80;96615.00;;;;5074615;28;20209;-72
2022/12/05 07:47:17;;;;;;;0.10;0.10;;;3.40;99.90;1.90;96591.00;;;;5074982;28;20239;-72
2022/12/05 07:49:45;;;;;;;0.10;0.10;;;3.40;99.90;2.00;96601.00;;;;5073766;28;20201;-72
2022/12/05 07:52:14;;;;;;;0.10;0.10;;;3.50;99.90;1.90;96576.00;;;;5073273;28;20194;-72
2022/12/05 07:54:42;;;;;;;0.10;0.10;;;3.40;99.90;1.80;96580.00;;;;5073892;28;20218;-72
2022/12/05 07:57:11;;;;;;;0.10;0.10;;;3.40;99.90;1.80;96582.00;;;;5073089;28;20730;-72
2022/12/05 07:59:39;;;;;;;0.10;0.10;;;3.40;99.90;1.80;96607.00;;;;5087281;28;20197;-72
2022/12/05 08:02:10;;;;;;;0.10;0.10;;;3.40;99.90;1.80;96583.00;;;;5074355;28;20222;-73
2022/12/05 08:04:38;;;;;;;0.10;0.10;;;3.40;99.90;1.80;96588.00;;;;5074158;28;20629;-72
2022/12/05 08:07:06;;;;;;;0.10;0.10;;;3.40;99.90;1.90;96615.00;;;;5074107;28;20190;-72
2022/12/05 08:09:34;;;;;;;0.10;0.10;;;3.40;99.90;1.90;96592.00;;;;5074087;28;20243;-72
2022/12/05 08:12:02;;;;;;;0.10;0.10;;;3.40;99.90;1.90;96610.00;;;;5072813;28;20259;-72
2022/12/05 08:14:32;;;;;;;0.10;0.10;;;3.50;99.90;2.00;96613.00;;;;5073465;28;20229;-72
2022/12/05 08:17:00;;;;;;;0.10;0.10;;;3.50;99.90;2.00;96632.00;;;;5073739;28;20247;-72
2022/12/05 08:19:28;;;;;;;0.10;0.10;;;3.50;99.90;2.00;96619.00;;;;5055584;28;20206;-73
2022/12/05 08:21:56;;;;;;;0.10;0.10;;;3.50;99.90;2.20;96916.00;;;;5063959;28;20213;-73
2022/12/05 08:24:24;;;;;;;0.10;0.10;;;3.60;99.90;2.20;96920.00;;;;5073502;28;20240;-72
2022/12/05 08:26:52;;;;;;;0.10;0.10;;;3.50;99.90;2.20;96936.00;;;;5074149;28;20243;-73
2022/12/05 08:29:22;;;;;;;0.10;0.10;;;3.60;99.90;2.30;96938.00;;;;5069867;28;20644;-72
2022/12/05 08:31:52;;;;;;;0.10;0.10;;;3.60;99.90;2.40;96933.00;;;;5074132;28;20203;-73
2022/12/05 08:34:20;;;;;;;0.10;0.10;;;3.70;99.90;2.40;96945.00;;;;5073276;28;20633;-73
2022/12/05 08:36:49;;;;;;;0.10;0.10;;;3.70;99.90;2.30;96938.00;;;;5074022;28;20311;-73
2022/12/05 08:39:19;;;;;;;0.10;0.10;;;3.70;99.90;2.20;96950.00;;;;5072883;28;20194;-73
2022/12/05 08:41:48;;;;;;;0.10;0.10;;;3.70;99.90;2.40;96933.00;;;;5073737;28;20217;-73
2022/12/05 08:44:17;;;;;;;0.10;0.10;;;3.70;99.90;2.30;96939.00;;;;5073209;28;20216;-73
2022/12/05 08:46:49;;;;;;;0.10;0.10;;;3.60;99.90;2.20;96936.00;;;;5073841;28;20269;-73
2022/12/05 08:49:19;;;;;;;0.10;0.10;;;3.60;99.90;2.20;96950.00;;;;5072570;28;20197;-73
2022/12/05 08:51:47;;;;;;;0.10;0.10;;;3.50;99.90;2.20;96957.00;;;;5073158;28;20194;-73
2022/12/05 08:54:16;;;;;;;0.10;0.10;;;3.50;99.90;2.20;96947.00;;;;5072455;28;20231;-72
2022/12/05 08:56:44;;;;;;;0.10;0.10;;;3.50;99.90;2.20;96943.00;;;;5073376;28;20248;-72
2022/12/05 08:59:12;;;;;;;0.00;0.00;;;3.50;99.90;2.20;96955.00;;;;5064510;28;20190;-72
2022/12/05 09:01:41;;;;;;;0.10;0.10;;;3.50;99.90;2.30;96978.00;;;;5073245;28;20221;-73
2022/12/05 09:04:11;;;;;;;0.10;0.10;;;3.50;99.90;2.20;96951.00;;;;5069725;28;20297;-72
2022/12/05 09:06:41;;;;;;;0.10;0.10;;;3.40;99.90;2.10;96987.00;;;;5071293;28;20198;-72
2022/12/05 09:09:12;;;;;;;0.08;0.08;;;3.40;99.90;2.20;97005.00;;;;5072872;28;20264;-72
2022/12/05 09:11:45;;;;;;;0.10;0.10;;;3.50;99.90;2.20;96987.00;;;;5073464;28;20198;-72
2022/12/05 09:14:14;;;;;;;0.10;0.10;;;3.50;99.90;2.20;97004.00;;;;5073085;28;20225;-72
2022/12/05 09:16:46;;;;;;;0.10;0.10;;;3.50;99.90;2.30;96993.00;;;;5072822;28;20190;-73
2022/12/05 09:19:17;;;;;;;0.10;0.10;;;3.60;99.90;2.30;97011.00;;;;5072371;28;20711;-73
2022/12/05 09:21:47;;;;;;;0.10;0.10;;;3.60;99.90;2.40;97001.00;;;;5072998;28;20217;-72
2022/12/05 09:24:15;;;;;;;0.10;0.10;;;3.70;99.90;2.40;96996.00;;;;5072741;28;20218;-72
2022/12/05 09:26:43;;;;;;;0.10;0.10;;;3.70;99.90;2.50;97003.00;;;;5072998;28;20182;-73
2022/12/05 09:29:12;;;;;;;0.10;0.10;;;3.70;99.90;2.50;96998.00;;;;5071753;28;20198;-73
2022/12/05 09:31:48;;;;;;;0.00;0.00;;;3.80;99.90;2.50;97009.00;;;;5072446;28;20255;-72
2022/12/05 09:34:18;;;;;;;0.10;0.10;;;3.80;99.90;2.50;97016.00;;;;5070255;28;20229;-72
2022/12/05 09:36:50;;;;;;;0.10;0.10;;;3.70;99.90;2.50;97030.00;;;;5072670;28;20194;-73
2022/12/05 09:39:28;;;;;;;0.10;0.10;;;3.80;99.90;2.50;97013.00;;;;5071582;28;20715;-73
2022/12/05 09:42:19;;;;;;;0.10;0.10;;;3.80;99.90;2.60;97022.00;;;;5072477;28;20240;-73
2022/12/05 09:45:18;;;;;;;0.10;0.10;;;3.90;99.90;2.80;97024.00;;;;5072271;28;20218;-73
2022/12/05 09:47:56;;;;;;;0.10;0.10;;;4.00;99.90;2.80;97010.00;;;;5072050;28;20193;-72
2022/12/05 09:50:27;;;;;;;0.10;0.10;;;4.00;99.90;2.90;97019.00;;;;5072340;28;20193;-72
2022/12/05 09:53:14;;;;;;;0.10;0.10;;;4.10;99.90;2.80;97026.00;;;;5072239;28;20190;-73
2022/12/05 09:55:48;;;;;;;0.10;0.10;;;4.10;99.90;2.80;97009.00;;;;5072217;28;20213;-72
2022/12/05 09:58:27;;;;;;;0.10;0.10;;;4.10;99.90;2.90;97013.00;;;;5070422;28;20194;-72
2022/12/05 10:01:03;;;;;;;0.10;0.10;;;4.20;99.90;2.90;97007.00;;;;5072258;28;20213;-73
2022/12/05 10:03:42;;;;;;;0.10;0.10;;;4.20;99.90;2.90;97011.00;;;;5071450;28;20189;-73
2022/12/05 10:06:20;;;;;;;0.10;0.10;;;4.20;99.90;2.90;97012.00;;;;5057559;28;20193;-73
2022/12/05 10:09:14;;;;;;;0.10;0.10;;;4.20;99.90;3.00;97024.00;;;;5074111;28;20190;-73
2022/12/05 10:11:56;;;;;;;0.10;0.10;;;4.30;99.90;3.10;97024.00;;;;5074517;28;20276;-73
2022/12/05 10:14:38;;;;;;;0.10;0.10;;;4.30;99.90;3.10;97024.00;;;;5071824;28;20255;-73
2022/12/05 10:17:19;;;;;;;0.10;0.10;;;4.40;99.90;3.20;97017.00;;;;5069202;28;20201;-73
2022/12/05 10:19:51;;;;;;;0.10;0.10;;;4.40;99.90;3.20;97023.00;;;;5070621;28;20182;-73
2022/12/05 10:22:27;;;;;;;0.10;0.10;;;4.40;99.90;3.10;97005.00;;;;5065662;28;20228;-73
2022/12/05 10:25:04;;;;;;;0.10;0.10;;;4.40;99.90;2.90;97011.00;;;;5071843;28;20213;-72
2022/12/05 10:27:38;;;;;;;0.10;0.10;;;4.40;99.90;3.10;97002.00;;;;5070757;28;20189;-73
2022/12/05 10:30:15;;;;;;;0.10;0.10;;;4.40;99.90;3.10;97009.00;;;;5071511;28;20729;-72
2022/12/05 10:32:53;;;;;;;0.10;0.10;;;4.40;99.90;3.20;97030.00;;;;5080593;28;20205;-72
2022/12/05 10:35:25;;;;;;;0.10;0.10;;;4.40;99.90;3.20;97015.00;;;;5070320;28;20252;-73
2022/12/05 10:37:56;;;;;;;0.10;0.10;;;4.40;99.90;3.20;97004.00;;;;5054963;28;20563;-73
2022/12/05 10:40:37;;;;;;;0.10;0.10;;;4.50;99.90;3.20;97007.00;;;;5071694;28;20194;-73
2022/12/05 10:43:08;;;;;;;0.10;0.10;;;4.50;99.90;3.30;97001.00;;;;5071305;28;20695;-73
2022/12/05 10:45:43;;;;;;;0.10;0.10;;;4.50;99.90;3.30;97023.00;;;;5072974;28;20225;-72
2022/12/05 10:48:15;;;;;;;0.10;0.10;;;4.50;99.90;3.30;97012.00;;;;5074815;28;20660;-73
2022/12/05 10:50:47;;;;;;;0.10;0.10;;;4.60;99.90;3.30;96959.00;;;;5072504;28;20223;-72
2022/12/05 10:53:21;;;;;;;0.10;0.10;;;4.50;99.90;3.40;97019.00;;;;5071446;28;20212;-72
2022/12/05 10:55:51;;;;;;;0.03;0.03;;;4.60;99.90;3.40;97030.00;;;;5072036;28;20218;-72
2022/12/05 10:58:54;;;;;;;0.10;0.10;;;4.60;99.90;3.40;97028.00;;;;5069705;28;20228;-72
2022/12/05 11:01:25;;;;;;;0.10;0.10;;;4.60;99.90;3.40;97023.00;;;;5070905;28;20677;-73
2022/12/05 11:03:58;;;;;;;0.10;0.10;;;4.60;99.90;3.40;97037.00;;;;5071392;28;20236;-73
2022/12/05 11:06:29;;;;;;;0.10;0.10;;;4.70;99.90;3.40;97035.00;;;;5070788;28;20559;-72
2022/12/05 11:09:02;;;;;;;0.10;0.10;;;4.60;99.90;3.40;97010.00;;;;5070791;28;20672;-73
2022/12/05 11:11:34;;;;;;;0.10;0.10;;;4.60;99.90;3.30;97011.00;;;;5071500;28;20204;-72
2022/12/05 11:14:05;;;;;;;0.10;0.10;;;4.50;99.90;3.30;97014.00;;;;5058448;28;20261;-72
2022/12/05 11:16:36;;;;;;;0.10;0.10;;;4.50;99.90;3.30;97022.00;;;;5069283;28;20202;-72
2022/12/05 11:19:25;;;;;;;0.10;0.10;;;4.50;99.90;3.30;97028.00;;;;5070086;28;20576;-72
2022/12/05 11:21:55;;;;;;;0.10;0.10;;;4.50;99.90;3.30;96955.00;;;;5071414;28;20229;-72
2022/12/05 11:24:28;;;;;;;0.10;0.10;;;4.50;99.90;3.20;97034.00;;;;5071351;28;20680;-72
2022/12/05 11:27:00;;;;;;;0.10;0.10;;;4.50;99.90;3.30;97028.00;;;;5070799;28;20194;-72
2022/12/05 11:29:34;;;;;;;0.05;0.05;;;4.50;99.90;3.30;97024.00;;;;5071073;28;20201;-72
2022/12/05 11:32:04;;;;;;;0.10;0.10;;;4.50;99.90;3.30;97030.00;;;;5070666;28;20197;-72
2022/12/05 11:34:41;;;;;;;0.10;0.10;;;4.50;99.90;3.30;97031.00;;;;5060568;28;20218;-72
2022/12/05 11:37:17;;;;;;;0.10;0.10;;;4.50;99.90;3.20;97017.00;;;;5051807;28;20208;-72
2022/12/05 11:39:45;;;;;;;0.10;0.10;;;4.50;99.90;3.20;97013.00;;;;5052101;28;20204;-72
2022/12/05 11:42:34;;;;;;;0.10;0.10;;;4.50;99.90;3.20;96966.00;;;;5054637;28;20236;-73
2022/12/05 11:45:28;;;;;;;0.10;0.10;;;4.50;99.90;3.20;97019.00;;;;5053546;28;20241;-72